Allen Park, Michigan
Current Conditions -  °F | °C
As of 3:53 PM on Sunday 21 Dec 2014 (Local Time) from KDTW Reporting Station
Overcast Overcast  
Wind Chill: 27°   Ceiling: 6000
Heat Index: 32°   Visibility: 8mi
Dew Point: 22°   Wind: 5mph
Humidity: 66%   Direction: 130°SE
Pressure: 30.25"   Gusts: NA
Location:  42.26°N, 83.22°W
Report Text: KDTW 212053Z 13004KT 8SM OVC060 00/M06 A3025 RMK AO2 SLP251 T00001056 55009 $
Loading
Personal Weather Stations






























Interactive Weather Map New forecast layout! Learn more

10-Day Weather Forecast

Advertisements
Track Severe Weather on mobile